sensor_id;sensor_type;location;lat;lon;timestamp;P1;durP1;ratioP1;P2;durP2;ratioP2
8889;SDS011;4481;43.406;24.454;2023-05-10T00:00:52;12.40;;;7.73;;
8889;SDS011;4481;43.406;24.454;2023-05-10T00:03:18;10.13;;;8.00;;
8889;SDS011;4481;43.406;24.454;2023-05-10T00:05:44;10.33;;;7.87;;
8889;SDS011;4481;43.406;24.454;2023-05-10T00:08:10;10.00;;;8.20;;
8889;SDS011;4481;43.406;24.454;2023-05-10T00:10:37;9.90;;;8.90;;
8889;SDS011;4481;43.406;24.454;2023-05-10T00:13:03;8.93;;;7.87;;
8889;SDS011;4481;43.406;24.454;2023-05-10T00:15:30;9.03;;;8.13;;
8889;SDS011;4481;43.406;24.454;2023-05-10T00:17:56;11.23;;;8.57;;
8889;SDS011;4481;43.406;24.454;2023-05-10T00:20:22;15.97;;;9.00;;
8889;SDS011;4481;43.406;24.454;2023-05-10T00:22:48;14.70;;;9.87;;
8889;SDS011;4481;43.406;24.454;2023-05-10T00:25:14;14.00;;;9.13;;
8889;SDS011;4481;43.406;24.454;2023-05-10T00:27:41;10.53;;;8.40;;
8889;SDS011;4481;43.406;24.454;2023-05-10T00:30:07;11.17;;;9.77;;
8889;SDS011;4481;43.406;24.454;2023-05-10T00:32:34;12.93;;;10.80;;
8889;SDS011;4481;43.406;24.454;2023-05-10T00:35:00;13.47;;;9.93;;
8889;SDS011;4481;43.406;24.454;2023-05-10T00:37:27;11.17;;;9.83;;
8889;SDS011;4481;43.406;24.454;2023-05-10T00:39:53;13.70;;;10.13;;
8889;SDS011;4481;43.406;24.454;2023-05-10T00:42:19;13.53;;;11.40;;
8889;SDS011;4481;43.406;24.454;2023-05-10T00:44:45;13.27;;;11.90;;
8889;SDS011;4481;43.406;24.454;2023-05-10T00:47:11;12.77;;;11.40;;
8889;SDS011;4481;43.406;24.454;2023-05-10T00:49:38;15.57;;;12.60;;
8889;SDS011;4481;43.406;24.454;2023-05-10T00:52:06;12.43;;;11.00;;
8889;SDS011;4481;43.406;24.454;2023-05-10T00:54:32;15.27;;;11.50;;
8889;SDS011;4481;43.406;24.454;2023-05-10T00:56:58;15.00;;;12.77;;
8889;SDS011;4481;43.406;24.454;2023-05-10T00:59:24;14.03;;;12.30;;
8889;SDS011;4481;43.406;24.454;2023-05-10T01:01:51;14.60;;;11.67;;
8889;SDS011;4481;43.406;24.454;2023-05-10T01:04:17;14.63;;;11.80;;
8889;SDS011;4481;43.406;24.454;2023-05-10T01:06:45;15.17;;;11.10;;
8889;SDS011;4481;43.406;24.454;2023-05-10T01:09:12;15.73;;;12.27;;
8889;SDS011;4481;43.406;24.454;2023-05-10T01:11:38;12.97;;;11.20;;
8889;SDS011;4481;43.406;24.454;2023-05-10T01:14:05;13.27;;;10.60;;
8889;SDS011;4481;43.406;24.454;2023-05-10T01:16:32;13.60;;;11.47;;
8889;SDS011;4481;43.406;24.454;2023-05-10T01:19:01;13.17;;;10.40;;
8889;SDS011;4481;43.406;24.454;2023-05-10T01:21:31;11.90;;;9.87;;
8889;SDS011;4481;43.406;24.454;2023-05-10T01:24:19;14.30;;;11.07;;
8889;SDS011;4481;43.406;24.454;2023-05-10T01:27:19;13.13;;;11.73;;
8889;SDS011;4481;43.406;24.454;2023-05-10T01:30:08;14.67;;;10.67;;
8889;SDS011;4481;43.406;24.454;2023-05-10T01:32:59;18.77;;;10.93;;
8889;SDS011;4481;43.406;24.454;2023-05-10T01:35:34;12.23;;;10.40;;
8889;SDS011;4481;43.406;24.454;2023-05-10T01:38:07;14.27;;;10.47;;
8889;SDS011;4481;43.406;24.454;2023-05-10T01:40:45;13.17;;;11.27;;
8889;SDS011;4481;43.406;24.454;2023-05-10T01:43:34;14.07;;;12.43;;
8889;SDS011;4481;43.406;24.454;2023-05-10T01:46:09;16.60;;;12.70;;
8889;SDS011;4481;43.406;24.454;2023-05-10T01:48:45;16.93;;;13.33;;
8889;SDS011;4481;43.406;24.454;2023-05-10T01:51:14;13.47;;;12.00;;
8889;SDS011;4481;43.406;24.454;2023-05-10T01:53:45;15.70;;;13.73;;
8889;SDS011;4481;43.406;24.454;2023-05-10T01:56:13;18.40;;;13.60;;
8889;SDS011;4481;43.406;24.454;2023-05-10T01:58:40;15.50;;;12.23;;
8889;SDS011;4481;43.406;24.454;2023-05-10T02:01:10;13.47;;;11.03;;
8889;SDS011;4481;43.406;24.454;2023-05-10T02:03:38;17.23;;;12.53;;
8889;SDS011;4481;43.406;24.454;2023-05-10T02:06:07;14.73;;;12.13;;
8889;SDS011;4481;43.406;24.454;2023-05-10T02:08:35;16.00;;;13.13;;
8889;SDS011;4481;43.406;24.454;2023-05-10T02:11:02;16.20;;;14.50;;
8889;SDS011;4481;43.406;24.454;2023-05-10T02:13:30;15.83;;;12.67;;
8889;SDS011;4481;43.406;24.454;2023-05-10T02:15:59;14.20;;;11.23;;
8889;SDS011;4481;43.406;24.454;2023-05-10T02:18:28;17.57;;;12.40;;
8889;SDS011;4481;43.406;24.454;2023-05-10T02:20:57;17.13;;;12.33;;
8889;SDS011;4481;43.406;24.454;2023-05-10T02:23:25;16.97;;;12.43;;
8889;SDS011;4481;43.406;24.454;2023-05-10T02:25:52;15.30;;;12.50;;
8889;SDS011;4481;43.406;24.454;2023-05-10T02:28:20;17.37;;;12.53;;
8889;SDS011;4481;43.406;24.454;2023-05-10T02:30:48;14.87;;;10.80;;
8889;SDS011;4481;43.406;24.454;2023-05-10T02:33:15;13.93;;;11.93;;
8889;SDS011;4481;43.406;24.454;2023-05-10T02:35:42;15.30;;;11.97;;
8889;SDS011;4481;43.406;24.454;2023-05-10T02:38:08;16.77;;;12.57;;
8889;SDS011;4481;43.406;24.454;2023-05-10T02:40:38;14.07;;;10.30;;
8889;SDS011;4481;43.406;24.454;2023-05-10T02:43:07;13.23;;;11.83;;
8889;SDS011;4481;43.406;24.454;2023-05-10T02:45:37;14.83;;;10.37;;
8889;SDS011;4481;43.406;24.454;2023-05-10T02:48:05;11.47;;;8.73;;
8889;SDS011;4481;43.406;24.454;2023-05-10T02:50:32;9.87;;;8.83;;
8889;SDS011;4481;43.406;24.454;2023-05-10T02:53:00;12.17;;;9.80;;
8889;SDS011;4481;43.406;24.454;2023-05-10T02:55:28;12.77;;;8.90;;
8889;SDS011;4481;43.406;24.454;2023-05-10T02:58:00;11.23;;;8.87;;
8889;SDS011;4481;43.406;24.454;2023-05-10T03:00:27;12.07;;;7.80;;
8889;SDS011;4481;43.406;24.454;2023-05-10T03:02:53;11.00;;;7.90;;
8889;SDS011;4481;43.406;24.454;2023-05-10T03:05:20;9.60;;;7.27;;
8889;SDS011;4481;43.406;24.454;2023-05-10T03:07:46;11.57;;;8.07;;
8889;SDS011;4481;43.406;24.454;2023-05-10T03:10:13;9.73;;;8.00;;
8889;SDS011;4481;43.406;24.454;2023-05-10T03:12:43;12.33;;;7.97;;
8889;SDS011;4481;43.406;24.454;2023-05-10T03:15:22;10.37;;;8.03;;
8889;SDS011;4481;43.406;24.454;2023-05-10T03:18:07;10.77;;;7.57;;
8889;SDS011;4481;43.406;24.454;2023-05-10T03:20:38;12.23;;;8.37;;
8889;SDS011;4481;43.406;24.454;2023-05-10T03:23:09;8.00;;;7.13;;
8889;SDS011;4481;43.406;24.454;2023-05-10T03:25:39;10.73;;;6.93;;
8889;SDS011;4481;43.406;24.454;2023-05-10T03:28:08;9.90;;;7.30;;
8889;SDS011;4481;43.406;24.454;2023-05-10T03:30:35;9.67;;;7.30;;
8889;SDS011;4481;43.406;24.454;2023-05-10T03:33:04;10.27;;;7.20;;
8889;SDS011;4481;43.406;24.454;2023-05-10T03:35:31;11.37;;;6.93;;
8889;SDS011;4481;43.406;24.454;2023-05-10T03:37:57;11.33;;;7.37;;
8889;SDS011;4481;43.406;24.454;2023-05-10T03:40:23;10.53;;;7.53;;
8889;SDS011;4481;43.406;24.454;2023-05-10T03:42:49;13.13;;;7.33;;
8889;SDS011;4481;43.406;24.454;2023-05-10T03:45:15;9.93;;;7.47;;
8889;SDS011;4481;43.406;24.454;2023-05-10T03:47:42;9.60;;;6.57;;
8889;SDS011;4481;43.406;24.454;2023-05-10T03:50:09;11.97;;;8.20;;
8889;SDS011;4481;43.406;24.454;2023-05-10T03:52:35;13.27;;;8.73;;
8889;SDS011;4481;43.406;24.454;2023-05-10T03:55:04;10.80;;;7.50;;
8889;SDS011;4481;43.406;24.454;2023-05-10T03:57:31;10.03;;;6.63;;
8889;SDS011;4481;43.406;24.454;2023-05-10T03:59:57;10.70;;;6.73;;
8889;SDS011;4481;43.406;24.454;2023-05-10T04:02:23;10.30;;;7.10;;
8889;SDS011;4481;43.406;24.454;2023-05-10T04:04:50;11.13;;;7.27;;
8889;SDS011;4481;43.406;24.454;2023-05-10T04:07:16;11.03;;;7.50;;
8889;SDS011;4481;43.406;24.454;2023-05-10T04:09:43;11.67;;;6.70;;
8889;SDS011;4481;43.406;24.454;2023-05-10T04:12:09;11.37;;;7.10;;
8889;SDS011;4481;43.406;24.454;2023-05-10T04:14:35;10.43;;;7.07;;
8889;SDS011;4481;43.406;24.454;2023-05-10T04:17:02;16.30;;;7.73;;
8889;SDS011;4481;43.406;24.454;2023-05-10T04:19:29;8.87;;;6.20;;
8889;SDS011;4481;43.406;24.454;2023-05-10T04:21:56;7.57;;;6.40;;
8889;SDS011;4481;43.406;24.454;2023-05-10T04:24:22;13.30;;;7.10;;
8889;SDS011;4481;43.406;24.454;2023-05-10T04:26:49;10.43;;;7.43;;
8889;SDS011;4481;43.406;24.454;2023-05-10T04:29:15;7.37;;;6.60;;
8889;SDS011;4481;43.406;24.454;2023-05-10T04:31:41;8.70;;;7.00;;
8889;SDS011;4481;43.406;24.454;2023-05-10T04:34:07;9.50;;;6.60;;
8889;SDS011;4481;43.406;24.454;2023-05-10T04:36:33;8.67;;;6.63;;
8889;SDS011;4481;43.406;24.454;2023-05-10T04:39:01;10.07;;;7.47;;
8889;SDS011;4481;43.406;24.454;2023-05-10T04:41:28;8.47;;;6.80;;
8889;SDS011;4481;43.406;24.454;2023-05-10T04:43:54;8.73;;;6.73;;
8889;SDS011;4481;43.406;24.454;2023-05-10T04:46:23;11.80;;;8.07;;
8889;SDS011;4481;43.406;24.454;2023-05-10T04:48:49;14.00;;;7.80;;
8889;SDS011;4481;43.406;24.454;2023-05-10T04:51:15;10.53;;;7.10;;
8889;SDS011;4481;43.406;24.454;2023-05-10T04:53:41;10.30;;;7.60;;
8889;SDS011;4481;43.406;24.454;2023-05-10T04:56:08;14.40;;;7.70;;
8889;SDS011;4481;43.406;24.454;2023-05-10T04:58:34;13.23;;;6.90;;
8889;SDS011;4481;43.406;24.454;2023-05-10T05:01:05;9.60;;;6.73;;
8889;SDS011;4481;43.406;24.454;2023-05-10T05:03:32;7.70;;;6.47;;
8889;SDS011;4481;43.406;24.454;2023-05-10T05:05:59;14.07;;;6.77;;
8889;SDS011;4481;43.406;24.454;2023-05-10T05:08:25;8.10;;;5.90;;
8889;SDS011;4481;43.406;24.454;2023-05-10T05:10:51;9.53;;;5.87;;
8889;SDS011;4481;43.406;24.454;2023-05-10T05:13:18;10.97;;;5.80;;
8889;SDS011;4481;43.406;24.454;2023-05-10T05:15:44;7.17;;;5.77;;
8889;SDS011;4481;43.406;24.454;2023-05-10T05:18:10;10.90;;;6.23;;
8889;SDS011;4481;43.406;24.454;2023-05-10T05:20:36;9.70;;;5.57;;
8889;SDS011;4481;43.406;24.454;2023-05-10T05:23:03;7.43;;;5.57;;
8889;SDS011;4481;43.406;24.454;2023-05-10T05:25:29;11.20;;;6.07;;
8889;SDS011;4481;43.406;24.454;2023-05-10T05:27:55;8.20;;;5.70;;
8889;SDS011;4481;43.406;24.454;2023-05-10T05:30:22;6.87;;;5.23;;
8889;SDS011;4481;43.406;24.454;2023-05-10T05:32:48;6.53;;;5.10;;
8889;SDS011;4481;43.406;24.454;2023-05-10T05:35:14;7.17;;;6.10;;
8889;SDS011;4481;43.406;24.454;2023-05-10T05:37:41;5.73;;;4.93;;
8889;SDS011;4481;43.406;24.454;2023-05-10T05:40:07;6.63;;;5.50;;
8889;SDS011;4481;43.406;24.454;2023-05-10T05:42:37;6.17;;;5.40;;
8889;SDS011;4481;43.406;24.454;2023-05-10T05:45:04;7.87;;;5.30;;
8889;SDS011;4481;43.406;24.454;2023-05-10T05:47:31;8.00;;;5.13;;
8889;SDS011;4481;43.406;24.454;2023-05-10T05:49:57;6.17;;;5.50;;
8889;SDS011;4481;43.406;24.454;2023-05-10T05:52:24;5.83;;;5.23;;
8889;SDS011;4481;43.406;24.454;2023-05-10T05:54:50;5.97;;;4.53;;
8889;SDS011;4481;43.406;24.454;2023-05-10T05:57:16;10.27;;;6.00;;
8889;SDS011;4481;43.406;24.454;2023-05-10T05:59:42;5.47;;;4.97;;
8889;SDS011;4481;43.406;24.454;2023-05-10T06:02:09;9.23;;;5.13;;
8889;SDS011;4481;43.406;24.454;2023-05-10T06:04:38;6.27;;;4.73;;
8889;SDS011;4481;43.406;24.454;2023-05-10T06:07:04;6.87;;;4.40;;
8889;SDS011;4481;43.406;24.454;2023-05-10T06:09:31;5.57;;;4.80;;
8889;SDS011;4481;43.406;24.454;2023-05-10T06:11:57;8.20;;;4.50;;
8889;SDS011;4481;43.406;24.454;2023-05-10T06:14:24;7.90;;;4.80;;
8889;SDS011;4481;43.406;24.454;2023-05-10T06:16:50;7.77;;;4.33;;
8889;SDS011;4481;43.406;24.454;2023-05-10T06:19:16;8.27;;;5.10;;
8889;SDS011;4481;43.406;24.454;2023-05-10T06:21:43;4.83;;;4.33;;
8889;SDS011;4481;43.406;24.454;2023-05-10T06:24:09;5.90;;;4.73;;
8889;SDS011;4481;43.406;24.454;2023-05-10T06:26:36;10.63;;;5.43;;
8889;SDS011;4481;43.406;24.454;2023-05-10T06:29:02;8.27;;;5.13;;
8889;SDS011;4481;43.406;24.454;2023-05-10T06:31:28;8.13;;;4.60;;
8889;SDS011;4481;43.406;24.454;2023-05-10T06:33:54;10.17;;;4.70;;
8889;SDS011;4481;43.406;24.454;2023-05-10T06:36:21;6.03;;;5.10;;
8889;SDS011;4481;43.406;24.454;2023-05-10T06:38:49;7.30;;;4.50;;
8889;SDS011;4481;43.406;24.454;2023-05-10T06:41:16;10.10;;;3.97;;
8889;SDS011;4481;43.406;24.454;2023-05-10T06:43:42;4.70;;;3.73;;
8889;SDS011;4481;43.406;24.454;2023-05-10T06:46:08;7.00;;;4.20;;
8889;SDS011;4481;43.406;24.454;2023-05-10T06:48:38;4.43;;;3.70;;
8889;SDS011;4481;43.406;24.454;2023-05-10T06:51:04;6.83;;;4.17;;
8889;SDS011;4481;43.406;24.454;2023-05-10T06:53:31;6.77;;;3.97;;
8889;SDS011;4481;43.406;24.454;2023-05-10T06:56:01;7.33;;;3.90;;
8889;SDS011;4481;43.406;24.454;2023-05-10T06:58:28;5.10;;;4.23;;
8889;SDS011;4481;43.406;24.454;2023-05-10T07:00:54;5.73;;;3.80;;
8889;SDS011;4481;43.406;24.454;2023-05-10T07:03:26;5.00;;;3.97;;
8889;SDS011;4481;43.406;24.454;2023-05-10T07:05:52;8.20;;;4.20;;
8889;SDS011;4481;43.406;24.454;2023-05-10T07:08:20;3.70;;;3.40;;
8889;SDS011;4481;43.406;24.454;2023-05-10T07:10:46;6.53;;;3.90;;
8889;SDS011;4481;43.406;24.454;2023-05-10T07:13:13;4.67;;;3.73;;
8889;SDS011;4481;43.406;24.454;2023-05-10T07:15:39;4.63;;;3.63;;
8889;SDS011;4481;43.406;24.454;2023-05-10T07:18:07;9.43;;;3.53;;
8889;SDS011;4481;43.406;24.454;2023-05-10T07:20:33;8.73;;;3.80;;
8889;SDS011;4481;43.406;24.454;2023-05-10T07:22:59;5.67;;;3.83;;
8889;SDS011;4481;43.406;24.454;2023-05-10T07:25:26;4.47;;;3.40;;
8889;SDS011;4481;43.406;24.454;2023-05-10T07:27:52;5.10;;;3.37;;
8889;SDS011;4481;43.406;24.454;2023-05-10T07:30:19;3.83;;;3.37;;
8889;SDS011;4481;43.406;24.454;2023-05-10T07:32:45;3.60;;;3.30;;
8889;SDS011;4481;43.406;24.454;2023-05-10T07:35:13;4.10;;;3.70;;
8889;SDS011;4481;43.406;24.454;2023-05-10T07:37:39;5.33;;;4.07;;
8889;SDS011;4481;43.406;24.454;2023-05-10T07:40:06;7.63;;;3.70;;
8889;SDS011;4481;43.406;24.454;2023-05-10T07:42:33;8.20;;;3.63;;
8889;SDS011;4481;43.406;24.454;2023-05-10T07:44:59;14.87;;;4.37;;
8889;SDS011;4481;43.406;24.454;2023-05-10T07:47:26;5.17;;;3.67;;
8889;SDS011;4481;43.406;24.454;2023-05-10T07:49:52;7.77;;;3.50;;
8889;SDS011;4481;43.406;24.454;2023-05-10T07:52:18;4.80;;;3.83;;
8889;SDS011;4481;43.406;24.454;2023-05-10T07:54:46;5.20;;;3.53;;
8889;SDS011;4481;43.406;24.454;2023-05-10T07:57:13;5.97;;;3.50;;
8889;SDS011;4481;43.406;24.454;2023-05-10T07:59:42;4.03;;;3.10;;
8889;SDS011;4481;43.406;24.454;2023-05-10T08:02:09;4.93;;;3.60;;
8889;SDS011;4481;43.406;24.454;2023-05-10T08:04:36;6.07;;;3.50;;
8889;SDS011;4481;43.406;24.454;2023-05-10T08:07:02;5.77;;;3.30;;
8889;SDS011;4481;43.406;24.454;2023-05-10T08:09:28;6.97;;;3.00;;
8889;SDS011;4481;43.406;24.454;2023-05-10T08:11:55;4.20;;;3.40;;
8889;SDS011;4481;43.406;24.454;2023-05-10T08:14:21;3.97;;;3.43;;
8889;SDS011;4481;43.406;24.454;2023-05-10T08:16:48;5.77;;;3.40;;
8889;SDS011;4481;43.406;24.454;2023-05-10T08:19:18;5.47;;;3.47;;
8889;SDS011;4481;43.406;24.454;2023-05-10T08:21:47;7.13;;;3.60;;
8889;SDS011;4481;43.406;24.454;2023-05-10T08:24:13;4.10;;;3.70;;
8889;SDS011;4481;43.406;24.454;2023-05-10T08:26:39;4.80;;;3.20;;
8889;SDS011;4481;43.406;24.454;2023-05-10T08:29:05;9.03;;;3.77;;
8889;SDS011;4481;43.406;24.454;2023-05-10T08:31:32;8.33;;;4.40;;
8889;SDS011;4481;43.406;24.454;2023-05-10T08:33:58;5.27;;;3.70;;
8889;SDS011;4481;43.406;24.454;2023-05-10T08:36:25;6.83;;;4.70;;
8889;SDS011;4481;43.406;24.454;2023-05-10T08:38:52;6.03;;;3.60;;
8889;SDS011;4481;43.406;24.454;2023-05-10T08:41:19;3.97;;;3.20;;
8889;SDS011;4481;43.406;24.454;2023-05-10T08:43:46;5.60;;;3.40;;
8889;SDS011;4481;43.406;24.454;2023-05-10T08:46:13;3.10;;;2.80;;
8889;SDS011;4481;43.406;24.454;2023-05-10T08:48:42;3.53;;;3.10;;
8889;SDS011;4481;43.406;24.454;2023-05-10T08:51:09;5.43;;;3.33;;
8889;SDS011;4481;43.406;24.454;2023-05-10T08:53:38;5.03;;;3.27;;
8889;SDS011;4481;43.406;24.454;2023-05-10T08:56:06;5.67;;;3.20;;
8889;SDS011;4481;43.406;24.454;2023-05-10T08:58:33;3.70;;;3.10;;
8889;SDS011;4481;43.406;24.454;2023-05-10T09:00:59;3.83;;;3.40;;
8889;SDS011;4481;43.406;24.454;2023-05-10T09:03:26;4.57;;;3.27;;
8889;SDS011;4481;43.406;24.454;2023-05-10T09:05:52;5.80;;;3.27;;
8889;SDS011;4481;43.406;24.454;2023-05-10T09:08:22;4.17;;;3.00;;
8889;SDS011;4481;43.406;24.454;2023-05-10T09:10:50;5.60;;;2.80;;
8889;SDS011;4481;43.406;24.454;2023-05-10T09:13:20;5.23;;;2.63;;
8889;SDS011;4481;43.406;24.454;2023-05-10T09:15:48;3.27;;;2.90;;
8889;SDS011;4481;43.406;24.454;2023-05-10T09:18:15;5.23;;;3.83;;
8889;SDS011;4481;43.406;24.454;2023-05-10T09:20:41;3.70;;;3.40;;
8889;SDS011;4481;43.406;24.454;2023-05-10T09:23:07;3.63;;;3.27;;
8889;SDS011;4481;43.406;24.454;2023-05-10T09:25:33;3.27;;;2.97;;
8889;SDS011;4481;43.406;24.454;2023-05-10T09:28:00;3.90;;;2.77;;
8889;SDS011;4481;43.406;24.454;2023-05-10T09:30:27;4.83;;;3.40;;
8889;SDS011;4481;43.406;24.454;2023-05-10T09:32:55;4.00;;;3.30;;
8889;SDS011;4481;43.406;24.454;2023-05-10T09:35:23;2.97;;;2.77;;
8889;SDS011;4481;43.406;24.454;2023-05-10T09:37:52;2.93;;;2.57;;
8889;SDS011;4481;43.406;24.454;2023-05-10T09:40:19;3.53;;;3.20;;
8889;SDS011;4481;43.406;24.454;2023-05-10T09:42:51;4.50;;;2.80;;
8889;SDS011;4481;43.406;24.454;2023-05-10T09:45:18;6.87;;;3.27;;
8889;SDS011;4481;43.406;24.454;2023-05-10T09:47:45;4.50;;;3.60;;
8889;SDS011;4481;43.406;24.454;2023-05-10T09:50:11;4.37;;;3.27;;
8889;SDS011;4481;43.406;24.454;2023-05-10T09:52:45;3.70;;;3.13;;
8889;SDS011;4481;43.406;24.454;2023-05-10T09:55:13;3.00;;;2.70;;
8889;SDS011;4481;43.406;24.454;2023-05-10T09:57:39;3.33;;;3.00;;
8889;SDS011;4481;43.406;24.454;2023-05-10T10:00:06;9.73;;;3.10;;
8889;SDS011;4481;43.406;24.454;2023-05-10T10:02:35;3.27;;;2.77;;
8889;SDS011;4481;43.406;24.454;2023-05-10T10:05:02;3.33;;;3.03;;
8889;SDS011;4481;43.406;24.454;2023-05-10T10:07:29;4.80;;;2.80;;
8889;SDS011;4481;43.406;24.454;2023-05-10T10:09:55;6.97;;;2.30;;
8889;SDS011;4481;43.406;24.454;2023-05-10T10:12:21;6.00;;;2.63;;
8889;SDS011;4481;43.406;24.454;2023-05-10T10:14:48;2.77;;;2.57;;
8889;SDS011;4481;43.406;24.454;2023-05-10T10:17:15;3.97;;;3.10;;
8889;SDS011;4481;43.406;24.454;2023-05-10T10:19:42;5.43;;;2.77;;
8889;SDS011;4481;43.406;24.454;2023-05-10T10:22:10;2.97;;;2.67;;
8889;SDS011;4481;43.406;24.454;2023-05-10T10:24:37;3.80;;;2.77;;
8889;SDS011;4481;43.406;24.454;2023-05-10T10:27:09;2.80;;;2.10;;
8889;SDS011;4481;43.406;24.454;2023-05-10T10:29:49;2.77;;;2.40;;
8889;SDS011;4481;43.406;24.454;2023-05-10T10:32:26;3.90;;;2.50;;
8889;SDS011;4481;43.406;24.454;2023-05-10T10:34:58;3.53;;;2.73;;
8889;SDS011;4481;43.406;24.454;2023-05-10T10:40:23;4.53;;;2.50;;
8889;SDS011;4481;43.406;24.454;2023-05-10T10:42:51;2.70;;;2.50;;
8889;SDS011;4481;43.406;24.454;2023-05-10T10:45:19;3.10;;;2.70;;
8889;SDS011;4481;43.406;24.454;2023-05-10T10:47:46;2.63;;;2.43;;
8889;SDS011;4481;43.406;24.454;2023-05-10T10:50:12;4.13;;;2.40;;
8889;SDS011;4481;43.406;24.454;2023-05-10T10:52:41;3.30;;;2.50;;
8889;SDS011;4481;43.406;24.454;2023-05-10T10:55:09;2.87;;;2.37;;
8889;SDS011;4481;43.406;24.454;2023-05-10T10:57:44;8.50;;;3.20;;
8889;SDS011;4481;43.406;24.454;2023-05-10T11:00:19;3.50;;;2.53;;
8889;SDS011;4481;43.406;24.454;2023-05-10T11:02:48;2.60;;;2.40;;
8889;SDS011;4481;43.406;24.454;2023-05-10T11:05:25;4.40;;;2.37;;
8889;SDS011;4481;43.406;24.454;2023-05-10T11:08:10;2.60;;;2.20;;
8889;SDS011;4481;43.406;24.454;2023-05-10T11:10:49;4.70;;;2.30;;
8889;SDS011;4481;43.406;24.454;2023-05-10T11:13:21;3.93;;;2.57;;
8889;SDS011;4481;43.406;24.454;2023-05-10T11:15:53;5.40;;;2.53;;
8889;SDS011;4481;43.406;24.454;2023-05-10T11:18:23;4.43;;;2.33;;
8889;SDS011;4481;43.406;24.454;2023-05-10T11:20:50;3.43;;;2.63;;
8889;SDS011;4481;43.406;24.454;2023-05-10T11:23:17;2.97;;;2.23;;
8889;SDS011;4481;43.406;24.454;2023-05-10T11:25:45;2.53;;;2.33;;
8889;SDS011;4481;43.406;24.454;2023-05-10T11:28:12;3.27;;;2.40;;
8889;SDS011;4481;43.406;24.454;2023-05-10T11:30:38;2.80;;;2.60;;
8889;SDS011;4481;43.406;24.454;2023-05-10T11:33:06;5.50;;;2.30;;
8889;SDS011;4481;43.406;24.454;2023-05-10T11:35:36;2.60;;;2.30;;
8889;SDS011;4481;43.406;24.454;2023-05-10T11:38:04;4.27;;;2.43;;
8889;SDS011;4481;43.406;24.454;2023-05-10T11:40:31;1.90;;;1.70;;
8889;SDS011;4481;43.406;24.454;2023-05-10T11:42:57;3.47;;;2.50;;
8889;SDS011;4481;43.406;24.454;2023-05-10T11:45:24;2.80;;;2.30;;
8889;SDS011;4481;43.406;24.454;2023-05-10T11:47:51;2.50;;;2.17;;
8889;SDS011;4481;43.406;24.454;2023-05-10T11:50:17;2.50;;;2.30;;
8889;SDS011;4481;43.406;24.454;2023-05-10T11:52:44;2.77;;;2.57;;
8889;SDS011;4481;43.406;24.454;2023-05-10T11:55:10;2.73;;;2.47;;
8889;SDS011;4481;43.406;24.454;2023-05-10T11:57:37;2.43;;;2.17;;
8889;SDS011;4481;43.406;24.454;2023-05-10T12:00:05;2.43;;;2.20;;
8889;SDS011;4481;43.406;24.454;2023-05-10T12:02:32;3.97;;;2.40;;
8889;SDS011;4481;43.406;24.454;2023-05-10T12:04:59;2.20;;;2.00;;
8889;SDS011;4481;43.406;24.454;2023-05-10T12:07:25;4.43;;;2.40;;
8889;SDS011;4481;43.406;24.454;2023-05-10T12:10:07;3.80;;;2.13;;
8889;SDS011;4481;43.406;24.454;2023-05-10T12:12:35;5.17;;;2.30;;
8889;SDS011;4481;43.406;24.454;2023-05-10T12:15:05;2.63;;;2.37;;
8889;SDS011;4481;43.406;24.454;2023-05-10T12:17:37;3.30;;;2.30;;
8889;SDS011;4481;43.406;24.454;2023-05-10T12:20:14;3.00;;;2.27;;
8889;SDS011;4481;43.406;24.454;2023-05-10T12:22:43;2.77;;;2.43;;
8889;SDS011;4481;43.406;24.454;2023-05-10T12:25:10;3.60;;;2.17;;
8889;SDS011;4481;43.406;24.454;2023-05-10T12:27:37;4.90;;;2.23;;
8889;SDS011;4481;43.406;24.454;2023-05-10T12:30:03;4.10;;;2.40;;
8889;SDS011;4481;43.406;24.454;2023-05-10T12:32:40;3.27;;;2.37;;
8889;SDS011;4481;43.406;24.454;2023-05-10T12:35:07;7.37;;;2.60;;
8889;SDS011;4481;43.406;24.454;2023-05-10T12:37:34;3.50;;;2.40;;
8889;SDS011;4481;43.406;24.454;2023-05-10T12:40:04;3.67;;;2.20;;
8889;SDS011;4481;43.406;24.454;2023-05-10T12:42:33;3.30;;;2.43;;
8889;SDS011;4481;43.406;24.454;2023-05-10T12:44:59;2.47;;;2.20;;
8889;SDS011;4481;43.406;24.454;2023-05-10T12:47:25;2.87;;;2.03;;
8889;SDS011;4481;43.406;24.454;2023-05-10T12:49:52;2.17;;;1.97;;
8889;SDS011;4481;43.406;24.454;2023-05-10T12:52:18;4.00;;;2.43;;
8889;SDS011;4481;43.406;24.454;2023-05-10T12:54:45;2.77;;;2.23;;
8889;SDS011;4481;43.406;24.454;2023-05-10T12:57:12;2.87;;;2.33;;
8889;SDS011;4481;43.406;24.454;2023-05-10T12:59:39;2.73;;;2.03;;
8889;SDS011;4481;43.406;24.454;2023-05-10T13:02:05;3.77;;;2.87;;
8889;SDS011;4481;43.406;24.454;2023-05-10T13:04:31;2.30;;;2.20;;
8889;SDS011;4481;43.406;24.454;2023-05-10T13:06:58;2.40;;;2.07;;
8889;SDS011;4481;43.406;24.454;2023-05-10T13:09:24;2.40;;;2.20;;
8889;SDS011;4481;43.406;24.454;2023-05-10T13:11:51;6.00;;;2.40;;
8889;SDS011;4481;43.406;24.454;2023-05-10T13:14:19;2.43;;;2.23;;
8889;SDS011;4481;43.406;24.454;2023-05-10T13:16:45;5.60;;;2.37;;
8889;SDS011;4481;43.406;24.454;2023-05-10T13:19:12;2.23;;;2.10;;
8889;SDS011;4481;43.406;24.454;2023-05-10T13:21:38;2.23;;;2.03;;
8889;SDS011;4481;43.406;24.454;2023-05-10T13:24:06;3.37;;;2.30;;
8889;SDS011;4481;43.406;24.454;2023-05-10T13:26:33;3.13;;;2.50;;
8889;SDS011;4481;43.406;24.454;2023-05-10T13:28:59;2.67;;;2.20;;
8889;SDS011;4481;43.406;24.454;2023-05-10T13:31:25;3.27;;;2.60;;
8889;SDS011;4481;43.406;24.454;2023-05-10T13:33:51;5.77;;;2.60;;
8889;SDS011;4481;43.406;24.454;2023-05-10T13:36:17;2.40;;;2.20;;
8889;SDS011;4481;43.406;24.454;2023-05-10T13:38:45;2.83;;;2.63;;
8889;SDS011;4481;43.406;24.454;2023-05-10T13:41:12;2.87;;;2.53;;
8889;SDS011;4481;43.406;24.454;2023-05-10T13:43:38;3.13;;;2.30;;
8889;SDS011;4481;43.406;24.454;2023-05-10T13:46:04;5.77;;;2.60;;
8889;SDS011;4481;43.406;24.454;2023-05-10T13:48:30;3.50;;;2.70;;
8889;SDS011;4481;43.406;24.454;2023-05-10T13:50:56;3.00;;;2.20;;
8889;SDS011;4481;43.406;24.454;2023-05-10T13:53:23;3.13;;;2.50;;
8889;SDS011;4481;43.406;24.454;2023-05-10T13:55:49;2.53;;;2.27;;
8889;SDS011;4481;43.406;24.454;2023-05-10T13:58:16;2.70;;;2.50;;
8889;SDS011;4481;43.406;24.454;2023-05-10T14:00:42;2.53;;;2.33;;
8889;SDS011;4481;43.406;24.454;2023-05-10T14:03:08;5.17;;;2.20;;
8889;SDS011;4481;43.406;24.454;2023-05-10T14:05:36;2.83;;;2.37;;
8889;SDS011;4481;43.406;24.454;2023-05-10T14:08:02;3.43;;;3.10;;
8889;SDS011;4481;43.406;24.454;2023-05-10T14:10:29;2.30;;;2.10;;
8889;SDS011;4481;43.406;24.454;2023-05-10T14:12:55;3.57;;;2.60;;
8889;SDS011;4481;43.406;24.454;2023-05-10T14:15:22;3.97;;;2.60;;
8889;SDS011;4481;43.406;24.454;2023-05-10T14:17:48;2.93;;;2.37;;
8889;SDS011;4481;43.406;24.454;2023-05-10T14:20:14;3.63;;;2.53;;
8889;SDS011;4481;43.406;24.454;2023-05-10T14:22:40;4.27;;;2.87;;
8889;SDS011;4481;43.406;24.454;2023-05-10T14:25:07;2.53;;;2.30;;
8889;SDS011;4481;43.406;24.454;2023-05-10T14:27:34;2.40;;;2.20;;
8889;SDS011;4481;43.406;24.454;2023-05-10T14:30:00;6.23;;;2.00;;
8889;SDS011;4481;43.406;24.454;2023-05-10T14:32:26;6.80;;;2.37;;
8889;SDS011;4481;43.406;24.454;2023-05-10T14:34:53;5.43;;;2.40;;
8889;SDS011;4481;43.406;24.454;2023-05-10T14:37:19;2.83;;;2.60;;
8889;SDS011;4481;43.406;24.454;2023-05-10T14:39:46;5.67;;;2.40;;
8889;SDS011;4481;43.406;24.454;2023-05-10T14:42:12;4.50;;;2.83;;
8889;SDS011;4481;43.406;24.454;2023-05-10T14:44:38;2.67;;;2.23;;
8889;SDS011;4481;43.406;24.454;2023-05-10T14:47:04;4.27;;;2.67;;
8889;SDS011;4481;43.406;24.454;2023-05-10T14:49:31;2.60;;;2.40;;
8889;SDS011;4481;43.406;24.454;2023-05-10T14:51:57;3.10;;;2.80;;
8889;SDS011;4481;43.406;24.454;2023-05-10T14:54:23;4.03;;;2.70;;
8889;SDS011;4481;43.406;24.454;2023-05-10T14:56:49;3.17;;;2.90;;
8889;SDS011;4481;43.406;24.454;2023-05-10T14:59:16;3.40;;;2.57;;
8889;SDS011;4481;43.406;24.454;2023-05-10T15:01:42;2.70;;;2.50;;